createdAt,value
2018-10-12T00:02:13.478Z,16.33
2018-10-12T00:04:43.187Z,21.57
2018-10-12T00:07:12.896Z,21.47
2018-10-12T00:09:43.661Z,16.03
2018-10-12T00:12:13.415Z,15.23
2018-10-12T00:14:43.127Z,16.27
2018-10-12T00:17:12.764Z,19.67
2018-10-12T00:19:42.430Z,20.97
2018-10-12T00:22:12.093Z,15.37
2018-10-12T00:24:43.356Z,20.23
2018-10-12T00:27:13.022Z,19.20
2018-10-12T00:29:42.643Z,20.53
2018-10-12T00:32:12.441Z,17.60
2018-10-12T00:34:42.167Z,17.83
2018-10-12T00:37:11.882Z,17.20
2018-10-12T00:39:43.068Z,20.60
2018-10-12T00:42:12.832Z,21.43
2018-10-12T00:44:42.522Z,17.83
2018-10-12T00:47:12.316Z,19.30
2018-10-12T00:49:41.963Z,16.80
2018-10-12T00:52:11.673Z,20.07
2018-10-12T00:54:42.734Z,24.30
2018-10-12T00:57:12.474Z,15.23
2018-10-12T00:59:42.135Z,15.13
2018-10-12T01:02:12.229Z,17.77
2018-10-12T01:04:42.156Z,18.33
2018-10-12T01:07:11.775Z,16.80
2018-10-12T01:09:42.727Z,25.87
2018-10-12T01:12:26.573Z,19.10
2018-10-12T01:14:56.231Z,15.23
2018-10-12T01:17:25.764Z,18.13
2018-10-12T01:19:55.854Z,19.23
2018-10-12T01:22:26.355Z,15.37
2018-10-12T01:24:56.984Z,14.80
2018-10-12T01:27:27.397Z,21.20
2018-10-12T01:29:57.392Z,17.70
2018-10-12T01:32:32.294Z,15.63
2018-10-12T01:35:07.976Z,17.37
2018-10-12T01:37:37.763Z,15.50
2018-10-12T01:40:07.636Z,17.00
2018-10-12T01:42:37.362Z,18.10
2018-10-12T01:45:07.150Z,16.17
2018-10-12T01:47:36.803Z,24.30
2018-10-12T01:50:06.540Z,17.93
2018-10-12T01:52:36.264Z,19.47
2018-10-12T01:55:05.965Z,20.60
2018-10-12T01:57:35.737Z,15.77
2018-10-12T02:00:05.863Z,18.00
2018-10-12T02:02:35.580Z,17.93
2018-10-12T02:05:05.462Z,18.70
2018-10-12T02:07:35.088Z,19.13
2018-10-12T02:10:04.968Z,16.43
2018-10-12T02:12:34.624Z,18.97
2018-10-12T02:15:05.082Z,18.87
2018-10-12T02:17:34.795Z,20.83
2018-10-12T02:20:04.514Z,19.90
2018-10-12T02:22:34.490Z,15.90
2018-10-12T02:25:05.176Z,14.20
2018-10-12T02:27:34.918Z,18.17
2018-10-12T02:30:05.728Z,24.77
2018-10-12T02:32:35.461Z,20.53
2018-10-12T02:35:05.635Z,15.73
2018-10-12T02:37:35.307Z,17.53
2018-10-12T02:40:05.136Z,18.10
2018-10-12T02:42:34.774Z,18.60
2018-10-12T02:45:05.411Z,17.40
2018-10-12T02:47:35.074Z,16.30
2018-10-12T02:50:06.171Z,18.33
2018-10-12T02:52:35.919Z,16.00
2018-10-12T02:55:06.436Z,16.23
2018-10-12T02:57:36.136Z,21.03
2018-10-12T03:00:06.141Z,21.20
2018-10-12T03:02:35.835Z,15.47
2018-10-12T03:05:06.782Z,18.57
2018-10-12T03:07:36.808Z,16.83
2018-10-12T03:10:06.593Z,22.27
2018-10-12T03:12:36.248Z,18.20
2018-10-12T03:15:06.726Z,18.60
2018-10-12T03:17:36.396Z,17.27
2018-10-12T03:20:06.530Z,20.33
2018-10-12T03:22:36.216Z,15.80
2018-10-12T03:25:06.886Z,19.77
2018-10-12T03:27:53.381Z,16.93
2018-10-12T03:30:23.139Z,18.80
2018-10-12T03:32:52.857Z,16.83
2018-10-12T03:35:22.730Z,14.33
2018-10-12T03:37:52.490Z,19.23
2018-10-12T03:40:22.300Z,17.80
2018-10-12T03:42:52.102Z,19.23
2018-10-12T03:45:21.765Z,15.50
2018-10-12T03:47:51.448Z,17.47
2018-10-12T03:50:22.672Z,18.17
2018-10-12T03:52:52.510Z,17.70
2018-10-12T03:55:22.193Z,17.00
2018-10-12T03:57:51.924Z,18.97
2018-10-12T04:00:21.574Z,18.00
2018-10-12T04:03:01.100Z,21.57
2018-10-12T04:05:35.825Z,21.27
2018-10-12T04:08:05.962Z,17.97
2018-10-12T04:10:35.961Z,18.80
2018-10-12T04:13:05.910Z,17.40
2018-10-12T04:15:35.669Z,17.40
2018-10-12T04:18:06.534Z,17.90
2018-10-12T04:20:36.275Z,20.00
2018-10-12T04:23:06.169Z,19.37
2018-10-12T04:25:35.867Z,19.90
2018-10-12T04:28:07.136Z,19.63
2018-10-12T04:30:36.403Z,20.10
2018-10-12T04:33:06.231Z,26.60
2018-10-12T04:35:35.553Z,20.40
2018-10-12T04:38:05.574Z,17.13
2018-10-12T04:41:16.060Z,14.37
2018-10-12T04:43:46.451Z,15.60
2018-10-12T04:46:19.157Z,19.67
2018-10-12T04:48:49.751Z,18.70
2018-10-12T04:51:26.420Z,17.50
2018-10-12T04:53:55.801Z,17.50
2018-10-12T04:56:25.175Z,18.10
2018-10-12T04:58:54.668Z,19.83
2018-10-12T05:01:24.022Z,18.93
2018-10-12T05:03:53.364Z,17.37
2018-10-12T05:06:22.732Z,20.23
2018-10-12T05:08:52.064Z,15.63
2018-10-12T05:11:21.488Z,18.30
2018-10-12T05:13:50.834Z,17.83
2018-10-12T05:16:20.232Z,18.40
2018-10-12T05:18:49.541Z,18.03
2018-10-12T05:21:18.941Z,16.63
2018-10-12T05:23:48.304Z,22.63
2018-10-12T05:26:17.721Z,20.57
2018-10-12T05:28:47.098Z,19.03
2018-10-12T05:31:16.507Z,20.27
2018-10-12T05:33:45.832Z,14.67
2018-10-12T05:36:15.288Z,16.03
2018-10-12T05:38:44.597Z,20.17
2018-10-12T05:41:14.038Z,17.87
2018-10-12T05:43:43.434Z,19.47
2018-10-12T05:46:12.856Z,22.80
2018-10-12T05:48:53.470Z,20.67
2018-10-12T05:51:22.792Z,20.23
2018-10-12T05:53:52.213Z,17.10
2018-10-12T05:56:25.010Z,17.03
2018-10-12T05:58:54.408Z,17.87
2018-10-12T06:01:23.867Z,17.82
2018-10-12T06:03:53.545Z,21.43
2018-10-12T06:06:22.889Z,22.03
2018-10-12T06:08:52.260Z,23.53
2018-10-12T06:11:21.722Z,16.63
2018-10-12T06:13:51.048Z,18.00
2018-10-12T06:16:22.677Z,22.53
2018-10-12T06:18:52.186Z,17.67
2018-10-12T06:21:21.596Z,18.13
2018-10-12T06:23:50.955Z,19.60
2018-10-12T06:26:20.408Z,21.27
2018-10-12T06:28:49.807Z,19.43
2018-10-12T06:31:19.258Z,17.67
2018-10-12T06:33:48.641Z,20.37
2018-10-12T06:36:18.060Z,18.40
2018-10-12T06:38:47.404Z,18.73
2018-10-12T06:41:16.961Z,19.03
2018-10-12T06:43:46.302Z,20.23
2018-10-12T06:46:15.852Z,22.47
2018-10-12T06:48:45.428Z,24.37
2018-10-12T06:51:15.027Z,27.80
2018-10-12T06:53:44.423Z,17.90
2018-10-12T06:56:13.923Z,21.10
2018-10-12T06:58:43.370Z,19.23
2018-10-12T07:01:13.039Z,18.70
2018-10-12T07:03:42.956Z,17.70
2018-10-12T07:06:12.499Z,18.73
2018-10-12T07:08:42.023Z,18.43
2018-10-12T07:11:12.046Z,16.67
2018-10-12T07:13:41.518Z,20.03
2018-10-12T07:16:11.791Z,20.67
2018-10-12T07:18:42.373Z,23.00
2018-10-12T07:21:11.851Z,20.33
2018-10-12T07:23:41.315Z,21.07
2018-10-12T07:26:10.801Z,19.30
2018-10-12T07:28:40.351Z,18.50
2018-10-12T07:31:09.698Z,17.03
2018-10-12T07:33:40.294Z,19.83
2018-10-12T07:36:09.667Z,17.00
2018-10-12T07:38:39.185Z,19.33
2018-10-12T07:41:08.930Z,22.87
2018-10-12T07:43:38.432Z,19.57
2018-10-12T07:46:07.970Z,18.23
2018-10-12T07:48:37.767Z,17.77
2018-10-12T07:51:07.391Z,16.67
2018-10-12T07:53:36.871Z,21.40
2018-10-12T07:56:07.248Z,19.33
2018-10-12T07:58:36.607Z,22.83
2018-10-12T08:01:05.975Z,19.03
2018-10-12T08:03:35.381Z,18.97
2018-10-12T08:06:05.540Z,22.63
2018-10-12T08:08:34.882Z,20.83
2018-10-12T08:11:04.377Z,20.73
2018-10-12T08:13:33.726Z,19.43
2018-10-12T08:16:03.119Z,19.57
2018-10-12T08:18:32.538Z,19.27
2018-10-12T08:21:02.818Z,22.83
2018-10-12T08:23:32.218Z,16.43
2018-10-12T08:26:01.595Z,24.87
2018-10-12T08:28:30.978Z,22.63
2018-10-12T08:31:00.331Z,19.10
2018-10-12T08:33:29.768Z,17.30
2018-10-12T08:35:59.260Z,21.97
2018-10-12T08:38:28.894Z,17.53
2018-10-12T08:40:58.277Z,20.27
2018-10-12T08:43:28.295Z,20.27
2018-10-12T08:45:57.635Z,18.63
2018-10-12T08:48:27.518Z,18.60
2018-10-12T08:50:56.883Z,19.00
2018-10-12T08:53:27.886Z,16.80
2018-10-12T08:55:57.245Z,15.77
2018-10-12T08:58:27.191Z,16.73
2018-10-12T09:00:56.578Z,20.03
2018-10-12T09:03:26.127Z,20.73
2018-10-12T09:05:55.508Z,16.70
2018-10-12T09:08:24.964Z,25.13
2018-10-12T09:10:54.292Z,20.13
2018-10-12T09:13:23.614Z,21.13
2018-10-12T09:15:52.970Z,22.77
2018-10-12T09:18:22.322Z,19.23
2018-10-12T09:20:51.712Z,16.43
2018-10-12T09:23:20.998Z,23.30
2018-10-12T09:25:50.324Z,21.07
2018-10-12T09:28:19.821Z,15.53
2018-10-12T09:30:49.198Z,22.50
2018-10-12T09:33:18.645Z,19.83
2018-10-12T09:35:48.208Z,17.63
2018-10-12T09:38:17.600Z,21.47
2018-10-12T09:40:47.050Z,17.03
2018-10-12T09:43:16.399Z,19.73
2018-10-12T09:45:45.731Z,17.50
2018-10-12T09:48:15.042Z,18.13
2018-10-12T09:50:44.373Z,26.67
2018-10-12T09:53:13.723Z,15.73
2018-10-12T09:55:43.135Z,18.43
2018-10-12T09:58:12.524Z,14.47
2018-10-12T10:00:47.642Z,19.60
2018-10-12T10:03:22.176Z,16.97
2018-10-12T10:05:51.516Z,16.83
2018-10-12T10:08:20.967Z,18.27
2018-10-12T10:10:50.285Z,18.53
2018-10-12T10:13:19.601Z,19.00
2018-10-12T10:15:49.372Z,16.73
2018-10-12T10:18:19.512Z,14.20
2018-10-12T10:20:49.193Z,21.63
2018-10-12T10:23:18.773Z,13.67
2018-10-12T10:25:49.039Z,17.07
2018-10-12T10:28:18.433Z,14.70
2018-10-12T10:30:47.782Z,15.53
2018-10-12T10:33:17.122Z,13.77
2018-10-12T10:35:46.506Z,15.50
2018-10-12T10:38:15.937Z,13.90
2018-10-12T10:40:45.332Z,13.60
2018-10-12T10:43:14.678Z,10.70
2018-10-12T10:45:44.043Z,16.57
2018-10-12T10:48:13.437Z,13.80
2018-10-12T10:50:42.828Z,14.90
2018-10-12T10:53:12.218Z,16.30
2018-10-12T10:55:41.521Z,14.77
2018-10-12T10:58:11.124Z,14.47
2018-10-12T11:00:42.430Z,13.80
2018-10-12T11:03:12.157Z,12.20
2018-10-12T11:05:41.918Z,15.03
2018-10-12T11:08:11.658Z,11.33
2018-10-12T11:10:41.404Z,11.30
2018-10-12T11:13:11.130Z,14.47
2018-10-12T11:15:41.954Z,15.37
2018-10-12T11:18:11.706Z,16.80
2018-10-12T11:20:41.374Z,11.37
2018-10-12T11:23:11.156Z,11.27
2018-10-12T11:25:40.867Z,15.20
2018-10-12T11:28:10.644Z,11.10
2018-10-12T11:30:41.657Z,16.93
2018-10-12T11:33:11.388Z,16.30
2018-10-12T11:35:41.234Z,17.43
2018-10-12T11:38:10.957Z,13.90
2018-10-12T11:40:40.689Z,15.17
2018-10-12T11:43:24.849Z,12.03
2018-10-12T11:45:55.382Z,15.70
2018-10-12T11:48:25.189Z,11.90
2018-10-12T11:50:54.893Z,11.30
2018-10-12T11:53:24.543Z,13.20
2018-10-12T11:55:54.260Z,16.30
2018-10-12T11:58:24.852Z,17.37
2018-10-12T12:00:54.785Z,14.03
2018-10-12T12:03:24.623Z,15.73
2018-10-12T12:05:54.326Z,19.10
2018-10-12T12:08:24.183Z,14.80
2018-10-12T12:10:53.926Z,17.73
2018-10-12T12:13:24.157Z,15.90
2018-10-12T12:15:54.091Z,14.67
2018-10-12T12:18:23.918Z,12.93
2018-10-12T12:20:53.768Z,14.67
2018-10-12T12:23:24.929Z,18.00
2018-10-12T12:25:54.832Z,18.10
2018-10-12T12:28:24.495Z,15.20
2018-10-12T12:30:54.160Z,18.73
2018-10-12T12:33:23.829Z,18.40
2018-10-12T12:35:53.701Z,17.57
2018-10-12T12:38:23.228Z,28.53
2018-10-12T12:40:59.362Z,14.20
2018-10-12T12:43:29.047Z,15.10
2018-10-12T12:45:58.633Z,17.83
2018-10-12T12:48:29.592Z,15.47
2018-10-12T12:50:58.950Z,14.97
2018-10-12T12:53:28.637Z,15.17
2018-10-12T12:55:58.307Z,12.70
2018-10-12T12:58:27.925Z,14.17
2018-10-12T13:00:57.588Z,12.37
2018-10-12T13:03:27.200Z,12.73
2018-10-12T13:05:56.866Z,13.93
2018-10-12T13:08:26.471Z,20.17
2018-10-12T13:10:56.107Z,15.37
2018-10-12T13:13:25.747Z,18.43
2018-10-12T13:15:55.453Z,17.53
2018-10-12T13:18:25.170Z,16.23
2018-10-12T13:20:54.815Z,12.40
2018-10-12T13:23:24.448Z,18.30
2018-10-12T13:25:54.107Z,14.97
2018-10-12T13:28:23.754Z,16.33
2018-10-12T13:30:53.417Z,17.13
2018-10-12T13:33:23.087Z,13.33
2018-10-12T13:35:53.180Z,17.20
2018-10-12T13:38:22.885Z,17.13
2018-10-12T13:40:52.614Z,13.40
2018-10-12T13:43:22.273Z,20.70
2018-10-12T13:45:51.989Z,18.83
2018-10-12T13:48:21.676Z,20.67
2018-10-12T13:50:51.449Z,14.67
2018-10-12T13:53:21.652Z,16.57
2018-10-12T13:55:51.370Z,16.77
2018-10-12T13:58:21.039Z,19.10
2018-10-12T14:00:50.725Z,13.70
2018-10-12T14:03:20.507Z,13.27
2018-10-12T14:05:50.255Z,16.40
2018-10-12T14:08:19.927Z,12.77
2018-10-12T14:10:49.639Z,15.83
2018-10-12T14:13:19.381Z,18.40
2018-10-12T14:15:48.990Z,20.33
2018-10-12T14:18:18.698Z,20.90
2018-10-12T14:20:48.378Z,13.93
2018-10-12T14:23:18.027Z,12.70
2018-10-12T14:25:47.826Z,11.17
2018-10-12T14:28:17.501Z,15.33
2018-10-12T14:30:47.507Z,12.93
2018-10-12T14:33:17.171Z,15.27
2018-10-12T14:35:47.444Z,17.27
2018-10-12T14:38:17.096Z,14.90
2018-10-12T14:40:47.606Z,12.03
2018-10-12T14:43:17.306Z,11.90
2018-10-12T14:45:47.617Z,14.77
2018-10-12T14:48:17.266Z,17.23
2018-10-12T14:50:48.030Z,10.83
2018-10-12T14:53:18.177Z,10.63
2018-10-12T14:55:48.694Z,10.80
2018-10-12T14:58:18.387Z,17.00
2018-10-12T15:00:48.472Z,15.13
2018-10-12T15:03:18.489Z,10.00
2018-10-12T15:05:48.856Z,13.63
2018-10-12T15:08:18.519Z,17.07
2018-10-12T15:10:49.197Z,12.63
2018-10-12T15:13:18.908Z,12.10
2018-10-12T15:15:49.412Z,12.67
2018-10-12T15:18:19.237Z,15.87
2018-10-12T15:20:49.626Z,14.30
2018-10-12T15:23:19.242Z,12.07
2018-10-12T15:25:49.759Z,17.37
2018-10-12T15:28:19.496Z,14.07
2018-10-12T15:30:50.514Z,18.47
2018-10-12T15:33:20.794Z,14.13
2018-10-12T15:35:52.541Z,13.50
2018-10-12T15:41:11.020Z,13.80
2018-10-12T15:43:41.094Z,12.43
2018-10-12T15:46:10.750Z,12.80
2018-10-12T15:48:42.003Z,14.10
2018-10-12T15:51:11.703Z,15.10
2018-10-12T15:53:41.958Z,9.97
2018-10-12T15:56:11.695Z,10.53
2018-10-12T15:58:41.635Z,9.67
2018-10-12T16:01:11.391Z,11.07
2018-10-12T16:03:43.357Z,17.30
2018-10-12T16:06:13.210Z,14.20
2018-10-12T16:08:43.000Z,11.87
2018-10-12T16:11:12.943Z,14.87
2018-10-12T16:13:42.834Z,16.77
2018-10-12T16:16:12.439Z,16.70
2018-10-12T16:18:43.052Z,16.13
2018-10-12T16:21:12.776Z,13.87
2018-10-12T16:23:42.532Z,16.77
2018-10-12T16:26:20.972Z,12.77
2018-10-12T16:28:51.511Z,14.90
2018-10-12T16:31:21.275Z,20.40
2018-10-12T16:33:52.216Z,11.77
2018-10-12T16:36:22.141Z,17.27
2018-10-12T16:38:52.749Z,15.37
2018-10-12T16:41:23.480Z,13.77
2018-10-12T16:43:54.935Z,13.87
2018-10-12T16:46:24.783Z,16.60
2018-10-12T16:48:54.769Z,18.07
2018-10-12T16:51:24.890Z,16.70
2018-10-12T16:53:55.587Z,19.73
2018-10-12T16:56:25.588Z,96.20
2018-10-12T16:58:55.461Z,121.87
2018-10-12T17:01:25.439Z,145.80
2018-10-12T17:03:55.351Z,41.87
2018-10-12T17:06:25.142Z,50.30
2018-10-12T17:09:11.372Z,59.57
2018-10-12T17:11:41.439Z,155.37
2018-10-12T17:14:11.119Z,317.87
2018-10-12T17:16:41.073Z,118.60
2018-10-12T17:19:11.000Z,51.97
2018-10-12T17:21:41.758Z,49.50
2018-10-12T17:24:11.505Z,125.00
2018-10-12T17:26:41.299Z,244.27
2018-10-12T17:29:10.972Z,223.70
2018-10-12T17:31:40.910Z,134.63
2018-10-12T17:34:10.572Z,203.73
2018-10-12T17:36:41.463Z,145.10
2018-10-12T17:39:13.069Z,117.03
2018-10-12T17:41:42.741Z,87.80
2018-10-12T17:44:12.433Z,65.97
2018-10-12T17:46:42.135Z,79.57
2018-10-12T17:49:11.899Z,83.43
2018-10-12T17:51:43.069Z,44.63
2018-10-12T17:54:12.752Z,52.23
2018-10-12T17:56:42.451Z,37.00
2018-10-12T17:59:12.259Z,21.80
2018-10-12T18:01:42.154Z,28.87
2018-10-12T18:04:11.831Z,30.60
2018-10-12T18:06:43.003Z,32.47
2018-10-12T18:09:12.696Z,37.00
2018-10-12T18:11:45.291Z,35.33
2018-10-12T18:14:15.079Z,34.47
2018-10-12T18:16:44.695Z,30.40
2018-10-12T18:19:14.387Z,24.17
2018-10-12T18:21:44.697Z,25.83
2018-10-12T18:24:14.490Z,18.43
2018-10-12T18:26:44.236Z,35.67
2018-10-12T18:29:13.970Z,34.70
2018-10-12T18:31:43.700Z,113.43
2018-10-12T18:34:13.526Z,74.80
2018-10-12T18:36:44.036Z,49.17
2018-10-12T18:39:13.882Z,44.63
2018-10-12T18:41:43.623Z,33.13
2018-10-12T18:44:13.464Z,75.90
2018-10-12T18:46:43.143Z,70.47
2018-10-12T18:49:12.884Z,69.53
2018-10-12T18:51:43.215Z,42.93
2018-10-12T18:54:12.932Z,29.93
2018-10-12T18:56:42.721Z,22.83
2018-10-12T18:59:12.412Z,22.80
2018-10-12T19:01:42.584Z,22.97
2018-10-12T19:04:12.317Z,25.10
2018-10-12T19:06:43.565Z,25.93
2018-10-12T19:09:13.706Z,24.07
2018-10-12T19:11:46.258Z,18.90
2018-10-12T19:14:18.150Z,24.43
2018-10-12T19:16:50.269Z,106.37
2018-10-12T19:19:20.027Z,52.63
2018-10-12T19:21:49.772Z,36.30
2018-10-12T19:24:19.566Z,24.83
2018-10-12T19:26:49.411Z,20.83
2018-10-12T19:29:19.180Z,23.53
2018-10-12T19:31:49.626Z,21.13
2018-10-12T19:34:19.487Z,20.07
2018-10-12T19:36:49.229Z,21.50
2018-10-12T19:39:18.903Z,21.50
2018-10-12T19:41:48.701Z,28.83
2018-10-12T19:44:20.939Z,22.87
2018-10-12T19:46:50.824Z,23.00
2018-10-12T19:49:20.604Z,25.53
2018-10-12T19:51:50.475Z,24.27
2018-10-12T19:54:20.288Z,26.97
2018-10-12T19:56:50.034Z,32.07
2018-10-12T19:59:19.978Z,26.37
2018-10-12T20:01:49.729Z,24.60
2018-10-12T20:04:19.606Z,24.23
2018-10-12T20:06:49.407Z,24.87
2018-10-12T20:09:19.215Z,26.23
2018-10-12T20:11:49.822Z,31.93
2018-10-12T20:14:19.557Z,24.20
2018-10-12T20:16:49.827Z,27.03
2018-10-12T20:19:19.541Z,33.47
2018-10-12T20:21:49.326Z,27.77
2018-10-12T20:24:19.270Z,24.00
2018-10-12T20:26:49.488Z,29.60
2018-10-12T20:29:19.228Z,23.83
2018-10-12T20:31:48.876Z,24.37
2018-10-12T20:34:18.534Z,26.13
2018-10-12T20:36:48.309Z,29.53
2018-10-12T20:39:18.025Z,28.00
2018-10-12T20:41:47.657Z,41.93
2018-10-12T20:44:17.346Z,40.63
2018-10-12T20:46:46.983Z,51.57
2018-10-12T20:49:16.682Z,41.47
2018-10-12T20:51:46.323Z,42.80
2018-10-12T20:54:15.949Z,36.20
2018-10-12T20:56:45.824Z,32.67
2018-10-12T20:59:15.643Z,31.27
2018-10-12T21:01:45.877Z,27.63
2018-10-12T21:04:15.745Z,28.23
2018-10-12T21:06:45.567Z,32.03
2018-10-12T21:09:15.417Z,24.00
2018-10-12T21:11:45.245Z,29.73
2018-10-12T21:14:15.155Z,28.83
2018-10-12T21:16:44.924Z,28.63
2018-10-12T21:19:14.697Z,25.57
2018-10-12T21:21:44.723Z,26.93
2018-10-12T21:24:14.527Z,27.20
2018-10-12T21:26:44.261Z,26.17
2018-10-12T21:29:14.009Z,27.03
2018-10-12T21:31:43.780Z,28.57
2018-10-12T21:34:14.035Z,29.30
2018-10-12T21:36:44.364Z,25.13
2018-10-12T21:39:15.225Z,24.77
2018-10-12T21:41:45.051Z,25.63
2018-10-12T21:44:15.116Z,25.53
2018-10-12T21:46:45.111Z,28.00
2018-10-12T21:49:15.328Z,24.87
2018-10-12T21:51:45.199Z,28.10
2018-10-12T21:54:15.517Z,28.87
2018-10-12T21:56:45.319Z,29.53
2018-10-12T21:59:15.713Z,28.83
2018-10-12T22:01:45.537Z,30.43
2018-10-12T22:04:15.919Z,27.53
2018-10-12T22:06:45.584Z,27.50
2018-10-12T22:09:15.793Z,25.17
2018-10-12T22:11:45.874Z,25.37
2018-10-12T22:14:16.250Z,30.27
2018-10-12T22:16:46.089Z,25.50
2018-10-12T22:19:16.310Z,27.40
2018-10-12T22:21:46.161Z,26.60
2018-10-12T22:24:16.399Z,30.40
2018-10-12T22:26:46.164Z,28.80
2018-10-12T22:29:16.433Z,28.60
2018-10-12T22:31:46.258Z,32.03
2018-10-12T22:34:16.858Z,25.43
2018-10-12T22:36:46.646Z,27.87
2018-10-12T22:39:17.133Z,28.73
2018-10-12T22:41:47.001Z,31.70
2018-10-12T22:44:17.257Z,33.67
2018-10-12T22:46:47.135Z,29.67
2018-10-12T22:49:17.550Z,30.00
2018-10-12T22:51:47.269Z,25.90
2018-10-12T22:54:17.842Z,30.10
2018-10-12T22:56:47.680Z,33.53
2018-10-12T22:59:17.979Z,27.83
2018-10-12T23:01:47.685Z,26.93
2018-10-12T23:04:17.991Z,28.03
2018-10-12T23:06:47.775Z,27.87
2018-10-12T23:09:17.860Z,26.73
2018-10-12T23:11:47.975Z,26.83
2018-10-12T23:14:18.145Z,24.90
2018-10-12T23:16:47.880Z,26.30
2018-10-12T23:19:18.166Z,29.07
2018-10-12T23:21:47.928Z,27.70
2018-10-12T23:24:18.053Z,29.20
2018-10-12T23:26:47.804Z,28.87
2018-10-12T23:29:17.861Z,32.40
2018-10-12T23:31:47.757Z,29.60
2018-10-12T23:34:18.191Z,26.93
2018-10-12T23:36:48.044Z,29.57
2018-10-12T23:42:00.220Z,28.60
2018-10-12T23:44:29.889Z,28.50
2018-10-12T23:46:59.702Z,27.07
2018-10-12T23:49:29.488Z,24.80
2018-10-12T23:51:59.220Z,29.33
2018-10-12T23:54:28.878Z,35.23
2018-10-12T23:56:58.573Z,28.30
2018-10-12T23:59:28.321Z,33.87
